Bloomingdale, Tennessee
Current Conditions -  °F | °C
As of 8:53 AM on Wednesday 28 Jan 2015 (Local Time) from KTRI Reporting Station
Clear Clear  
Wind Chill: 23°   Ceiling: Unl
Heat Index: 23°   Visibility: 10mi
Dew Point: 14°   Wind: 0mph
Humidity: 68%   Direction: NA
Pressure: 30.31"   Gusts: NA
Location:  36.58°N, 82.49°W
Report Text: KTRI 281353Z 00000KT 10SM CLR M05/M10 A3031 RMK AO2 SLP270 T10501100
Loading
Personal Weather Stations






























Interactive Weather Map New forecast layout! Learn more

10-Day Weather Forecast

Advertisements
Track Severe Weather on mobile